sensor_id;sensor_type;location;lat;lon;timestamp;P1;durP1;ratioP1;P2;durP2;ratioP2
70924;SDS011;58577;52.410;13.242;2023-01-05T00:01:36;10.25;;;3.05;;
70924;SDS011;58577;52.410;13.242;2023-01-05T00:04:22;4.82;;;2.60;;
70924;SDS011;58577;52.410;13.242;2023-01-05T00:07:08;7.15;;;3.05;;
70924;SDS011;58577;52.410;13.242;2023-01-05T00:09:53;9.02;;;3.17;;
70924;SDS011;58577;52.410;13.242;2023-01-05T00:12:39;7.68;;;2.83;;
70924;SDS011;58577;52.410;13.242;2023-01-05T00:15:44;8.85;;;2.80;;
70924;SDS011;58577;52.410;13.242;2023-01-05T00:18:48;9.95;;;2.72;;
70924;SDS011;58577;52.410;13.242;2023-01-05T00:21:53;11.15;;;2.78;;
70924;SDS011;58577;52.410;13.242;2023-01-05T00:24:58;10.35;;;3.03;;
70924;SDS011;58577;52.410;13.242;2023-01-05T00:27:49;10.70;;;2.97;;
70924;SDS011;58577;52.410;13.242;2023-01-05T00:30:40;13.40;;;3.05;;
70924;SDS011;58577;52.410;13.242;2023-01-05T00:33:28;10.57;;;3.35;;
70924;SDS011;58577;52.410;13.242;2023-01-05T00:36:13;5.97;;;2.58;;
70924;SDS011;58577;52.410;13.242;2023-01-05T00:38:59;14.25;;;3.65;;
70924;SDS011;58577;52.410;13.242;2023-01-05T00:41:45;9.30;;;2.63;;
70924;SDS011;58577;52.410;13.242;2023-01-05T00:44:31;12.50;;;2.60;;
70924;SDS011;58577;52.410;13.242;2023-01-05T00:47:16;10.30;;;2.78;;
70924;SDS011;58577;52.410;13.242;2023-01-05T00:50:03;10.25;;;2.70;;
70924;SDS011;58577;52.410;13.242;2023-01-05T00:52:50;11.05;;;2.90;;
70924;SDS011;58577;52.410;13.242;2023-01-05T00:55:35;12.57;;;3.63;;
70924;SDS011;58577;52.410;13.242;2023-01-05T00:58:21;9.35;;;2.55;;
70924;SDS011;58577;52.410;13.242;2023-01-05T01:01:08;9.10;;;2.70;;
70924;SDS011;58577;52.410;13.242;2023-01-05T01:03:56;13.43;;;3.40;;
70924;SDS011;58577;52.410;13.242;2023-01-05T01:06:42;9.52;;;2.88;;
70924;SDS011;58577;52.410;13.242;2023-01-05T01:09:28;7.25;;;2.42;;
70924;SDS011;58577;52.410;13.242;2023-01-05T01:12:14;7.40;;;2.78;;
70924;SDS011;58577;52.410;13.242;2023-01-05T01:15:00;8.98;;;3.38;;
70924;SDS011;58577;52.410;13.242;2023-01-05T01:17:46;6.57;;;2.35;;
70924;SDS011;58577;52.410;13.242;2023-01-05T01:20:32;13.45;;;2.75;;
70924;SDS011;58577;52.410;13.242;2023-01-05T01:23:18;10.55;;;3.30;;
70924;SDS011;58577;52.410;13.242;2023-01-05T01:26:04;11.43;;;3.10;;
70924;SDS011;58577;52.410;13.242;2023-01-05T01:28:52;7.82;;;2.60;;
70924;SDS011;58577;52.410;13.242;2023-01-05T01:31:38;10.25;;;2.47;;
70924;SDS011;58577;52.410;13.242;2023-01-05T01:34:24;10.20;;;3.20;;
70924;SDS011;58577;52.410;13.242;2023-01-05T01:37:10;11.63;;;2.88;;
70924;SDS011;58577;52.410;13.242;2023-01-05T01:40:01;5.25;;;2.40;;
70924;SDS011;58577;52.410;13.242;2023-01-05T01:42:49;6.63;;;2.30;;
70924;SDS011;58577;52.410;13.242;2023-01-05T01:45:35;5.60;;;3.00;;
70924;SDS011;58577;52.410;13.242;2023-01-05T01:48:21;8.75;;;2.88;;
70924;SDS011;58577;52.410;13.242;2023-01-05T01:51:09;6.25;;;2.45;;
70924;SDS011;58577;52.410;13.242;2023-01-05T01:54:02;14.43;;;2.95;;
70924;SDS011;58577;52.410;13.242;2023-01-05T01:59:40;9.77;;;2.70;;
70924;SDS011;58577;52.410;13.242;2023-01-05T02:02:26;5.32;;;2.33;;
70924;SDS011;58577;52.410;13.242;2023-01-05T02:05:13;10.65;;;3.15;;
70924;SDS011;58577;52.410;13.242;2023-01-05T02:08:01;8.15;;;2.60;;
70924;SDS011;58577;52.410;13.242;2023-01-05T02:11:01;10.93;;;2.75;;
70924;SDS011;58577;52.410;13.242;2023-01-05T02:32:26;7.85;;;2.40;;
70924;SDS011;58577;52.410;13.242;2023-01-05T02:44:42;9.57;;;2.40;;
70924;SDS011;58577;52.410;13.242;2023-01-05T02:50:22;5.18;;;2.15;;
70924;SDS011;58577;52.410;13.242;2023-01-05T02:53:22;2.40;;;2.00;;
70924;SDS011;58577;52.410;13.242;2023-01-05T02:56:14;11.70;;;2.15;;
70924;SDS011;58577;52.410;13.242;2023-01-05T02:59:13;8.55;;;3.28;;
70924;SDS011;58577;52.410;13.242;2023-01-05T03:02:07;8.23;;;2.20;;
70924;SDS011;58577;52.410;13.242;2023-01-05T03:04:59;5.45;;;2.03;;
70924;SDS011;58577;52.410;13.242;2023-01-05T03:07:51;11.15;;;2.58;;
70924;SDS011;58577;52.410;13.242;2023-01-05T03:10:41;8.88;;;2.45;;
70924;SDS011;58577;52.410;13.242;2023-01-05T03:13:56;8.18;;;1.70;;
70924;SDS011;58577;52.410;13.242;2023-01-05T03:16:48;8.90;;;2.53;;
70924;SDS011;58577;52.410;13.242;2023-01-05T03:19:36;11.32;;;2.60;;
70924;SDS011;58577;52.410;13.242;2023-01-05T03:22:27;5.43;;;2.05;;
70924;SDS011;58577;52.410;13.242;2023-01-05T03:25:36;6.10;;;2.28;;
70924;SDS011;58577;52.410;13.242;2023-01-05T03:28:49;7.15;;;2.13;;
70924;SDS011;58577;52.410;13.242;2023-01-05T03:31:59;7.75;;;2.00;;
70924;SDS011;58577;52.410;13.242;2023-01-05T03:35:17;9.55;;;1.88;;
70924;SDS011;58577;52.410;13.242;2023-01-05T03:41:14;7.68;;;2.15;;
70924;SDS011;58577;52.410;13.242;2023-01-05T03:44:03;4.80;;;1.98;;
70924;SDS011;58577;52.410;13.242;2023-01-05T03:46:54;5.30;;;2.28;;
70924;SDS011;58577;52.410;13.242;2023-01-05T03:49:41;6.57;;;2.17;;
70924;SDS011;58577;52.410;13.242;2023-01-05T03:52:27;8.30;;;1.70;;
70924;SDS011;58577;52.410;13.242;2023-01-05T03:55:13;5.82;;;2.17;;
70924;SDS011;58577;52.410;13.242;2023-01-05T03:57:59;7.53;;;1.80;;
70924;SDS011;58577;52.410;13.242;2023-01-05T04:00:46;5.47;;;1.88;;
70924;SDS011;58577;52.410;13.242;2023-01-05T04:03:34;5.13;;;1.70;;
70924;SDS011;58577;52.410;13.242;2023-01-05T04:06:22;6.65;;;1.80;;
70924;SDS011;58577;52.410;13.242;2023-01-05T04:09:09;7.88;;;1.95;;
70924;SDS011;58577;52.410;13.242;2023-01-05T04:11:56;5.07;;;1.80;;
70924;SDS011;58577;52.410;13.242;2023-01-05T04:14:42;11.13;;;3.28;;
70924;SDS011;58577;52.410;13.242;2023-01-05T04:17:28;5.90;;;2.17;;
70924;SDS011;58577;52.410;13.242;2023-01-05T04:20:14;6.13;;;1.85;;
70924;SDS011;58577;52.410;13.242;2023-01-05T04:23:00;8.45;;;2.15;;
70924;SDS011;58577;52.410;13.242;2023-01-05T04:25:46;4.60;;;1.88;;
70924;SDS011;58577;52.410;13.242;2023-01-05T04:28:37;6.15;;;2.08;;
70924;SDS011;58577;52.410;13.242;2023-01-05T04:31:23;5.07;;;1.92;;
70924;SDS011;58577;52.410;13.242;2023-01-05T04:34:10;8.00;;;2.25;;
70924;SDS011;58577;52.410;13.242;2023-01-05T04:36:57;8.57;;;2.22;;
70924;SDS011;58577;52.410;13.242;2023-01-05T04:39:43;7.13;;;2.30;;
70924;SDS011;58577;52.410;13.242;2023-01-05T04:42:30;7.88;;;2.10;;
70924;SDS011;58577;52.410;13.242;2023-01-05T04:45:16;7.28;;;2.50;;
70924;SDS011;58577;52.410;13.242;2023-01-05T04:48:03;11.05;;;2.75;;
70924;SDS011;58577;52.410;13.242;2023-01-05T04:50:52;9.63;;;2.47;;
70924;SDS011;58577;52.410;13.242;2023-01-05T04:53:45;8.68;;;2.67;;
70924;SDS011;58577;52.410;13.242;2023-01-05T04:56:34;8.85;;;2.92;;
70924;SDS011;58577;52.410;13.242;2023-01-05T04:59:22;9.40;;;2.72;;
70924;SDS011;58577;52.410;13.242;2023-01-05T05:02:11;12.13;;;2.88;;
70924;SDS011;58577;52.410;13.242;2023-01-05T05:05:00;9.85;;;3.10;;
70924;SDS011;58577;52.410;13.242;2023-01-05T05:07:46;8.57;;;3.00;;
70924;SDS011;58577;52.410;13.242;2023-01-05T05:10:33;9.90;;;2.85;;
70924;SDS011;58577;52.410;13.242;2023-01-05T05:13:19;9.43;;;2.80;;
70924;SDS011;58577;52.410;13.242;2023-01-05T05:16:07;10.80;;;2.95;;
70924;SDS011;58577;52.410;13.242;2023-01-05T05:18:53;7.63;;;2.65;;
70924;SDS011;58577;52.410;13.242;2023-01-05T05:21:43;10.53;;;2.70;;
70924;SDS011;58577;52.410;13.242;2023-01-05T05:24:29;8.15;;;2.72;;
70924;SDS011;58577;52.410;13.242;2023-01-05T05:27:15;7.07;;;2.38;;
70924;SDS011;58577;52.410;13.242;2023-01-05T05:30:01;8.15;;;2.80;;
70924;SDS011;58577;52.410;13.242;2023-01-05T05:32:47;8.50;;;2.60;;
70924;SDS011;58577;52.410;13.242;2023-01-05T05:35:33;6.22;;;2.20;;
70924;SDS011;58577;52.410;13.242;2023-01-05T05:38:19;6.20;;;2.10;;
70924;SDS011;58577;52.410;13.242;2023-01-05T05:41:05;7.53;;;2.25;;
70924;SDS011;58577;52.410;13.242;2023-01-05T05:43:50;9.85;;;1.95;;
70924;SDS011;58577;52.410;13.242;2023-01-05T05:46:36;6.35;;;2.30;;
70924;SDS011;58577;52.410;13.242;2023-01-05T05:49:22;6.90;;;2.60;;
70924;SDS011;58577;52.410;13.242;2023-01-05T05:52:08;5.03;;;2.17;;
70924;SDS011;58577;52.410;13.242;2023-01-05T05:54:54;4.43;;;2.35;;
70924;SDS011;58577;52.410;13.242;2023-01-05T05:57:39;4.28;;;1.73;;
70924;SDS011;58577;52.410;13.242;2023-01-05T06:00:25;3.38;;;2.03;;
70924;SDS011;58577;52.410;13.242;2023-01-05T06:03:12;6.13;;;2.10;;
70924;SDS011;58577;52.410;13.242;2023-01-05T06:05:58;4.55;;;2.03;;
70924;SDS011;58577;52.410;13.242;2023-01-05T06:08:44;7.70;;;2.33;;
70924;SDS011;58577;52.410;13.242;2023-01-05T06:11:29;4.85;;;2.10;;
70924;SDS011;58577;52.410;13.242;2023-01-05T06:14:15;4.43;;;1.90;;
70924;SDS011;58577;52.410;13.242;2023-01-05T06:17:01;6.78;;;1.67;;
70924;SDS011;58577;52.410;13.242;2023-01-05T06:19:47;5.07;;;1.80;;
70924;SDS011;58577;52.410;13.242;2023-01-05T06:22:32;5.90;;;1.83;;
70924;SDS011;58577;52.410;13.242;2023-01-05T06:25:18;6.50;;;2.35;;
70924;SDS011;58577;52.410;13.242;2023-01-05T06:28:04;4.22;;;1.65;;
70924;SDS011;58577;52.410;13.242;2023-01-05T06:30:50;2.15;;;1.40;;
70924;SDS011;58577;52.410;13.242;2023-01-05T06:33:36;1.90;;;1.55;;
70924;SDS011;58577;52.410;13.242;2023-01-05T06:36:22;2.88;;;1.52;;
70924;SDS011;58577;52.410;13.242;2023-01-05T06:39:08;4.50;;;1.67;;
70924;SDS011;58577;52.410;13.242;2023-01-05T06:41:53;3.13;;;1.45;;
70924;SDS011;58577;52.410;13.242;2023-01-05T06:44:39;2.95;;;1.73;;
70924;SDS011;58577;52.410;13.242;2023-01-05T06:47:26;6.72;;;1.70;;
70924;SDS011;58577;52.410;13.242;2023-01-05T06:50:12;1.98;;;1.38;;
70924;SDS011;58577;52.410;13.242;2023-01-05T06:52:58;2.25;;;1.38;;
70924;SDS011;58577;52.410;13.242;2023-01-05T06:55:44;3.58;;;1.50;;
70924;SDS011;58577;52.410;13.242;2023-01-05T06:58:30;4.80;;;1.50;;
70924;SDS011;58577;52.410;13.242;2023-01-05T07:01:16;4.75;;;1.92;;
70924;SDS011;58577;52.410;13.242;2023-01-05T07:04:02;4.80;;;1.33;;
70924;SDS011;58577;52.410;13.242;2023-01-05T07:06:48;1.88;;;1.30;;
70924;SDS011;58577;52.410;13.242;2023-01-05T07:09:34;2.90;;;1.50;;
70924;SDS011;58577;52.410;13.242;2023-01-05T07:12:19;2.40;;;1.10;;
70924;SDS011;58577;52.410;13.242;2023-01-05T07:15:05;3.85;;;1.63;;
70924;SDS011;58577;52.410;13.242;2023-01-05T07:17:52;2.40;;;1.48;;
70924;SDS011;58577;52.410;13.242;2023-01-05T07:20:38;1.85;;;1.42;;
70924;SDS011;58577;52.410;13.242;2023-01-05T07:23:23;3.17;;;1.48;;
70924;SDS011;58577;52.410;13.242;2023-01-05T07:26:09;1.30;;;1.20;;
70924;SDS011;58577;52.410;13.242;2023-01-05T07:28:55;0.98;;;0.90;;
70924;SDS011;58577;52.410;13.242;2023-01-05T07:31:42;2.60;;;1.05;;
70924;SDS011;58577;52.410;13.242;2023-01-05T07:34:28;1.00;;;1.00;;
70924;SDS011;58577;52.410;13.242;2023-01-05T07:37:14;0.70;;;0.70;;
70924;SDS011;58577;52.410;13.242;2023-01-05T07:40:00;1.30;;;0.80;;
70924;SDS011;58577;52.410;13.242;2023-01-05T07:42:52;1.48;;;0.80;;
70924;SDS011;58577;52.410;13.242;2023-01-05T07:45:39;3.05;;;1.45;;
70924;SDS011;58577;52.410;13.242;2023-01-05T07:48:25;0.55;;;0.55;;
70924;SDS011;58577;52.410;13.242;2023-01-05T07:51:10;0.70;;;0.70;;
70924;SDS011;58577;52.410;13.242;2023-01-05T07:53:56;0.80;;;0.77;;
70924;SDS011;58577;52.410;13.242;2023-01-05T07:56:42;1.58;;;1.02;;
70924;SDS011;58577;52.410;13.242;2023-01-05T07:59:28;1.30;;;0.80;;
70924;SDS011;58577;52.410;13.242;2023-01-05T08:02:14;2.65;;;0.82;;
70924;SDS011;58577;52.410;13.242;2023-01-05T08:04:59;0.85;;;0.85;;
70924;SDS011;58577;52.410;13.242;2023-01-05T08:07:45;1.13;;;0.88;;
70924;SDS011;58577;52.410;13.242;2023-01-05T08:10:31;3.03;;;1.20;;
70924;SDS011;58577;52.410;13.242;2023-01-05T08:13:17;1.55;;;1.00;;
70924;SDS011;58577;52.410;13.242;2023-01-05T08:16:21;1.50;;;0.80;;
70924;SDS011;58577;52.410;13.242;2023-01-05T08:19:08;0.98;;;0.60;;
70924;SDS011;58577;52.410;13.242;2023-01-05T08:21:54;1.10;;;0.82;;
70924;SDS011;58577;52.410;13.242;2023-01-05T08:24:40;2.05;;;0.90;;
70924;SDS011;58577;52.410;13.242;2023-01-05T08:27:25;0.85;;;0.70;;
70924;SDS011;58577;52.410;13.242;2023-01-05T08:30:11;1.67;;;0.75;;
70924;SDS011;58577;52.410;13.242;2023-01-05T08:32:58;3.20;;;1.38;;
70924;SDS011;58577;52.410;13.242;2023-01-05T08:35:44;2.47;;;1.50;;
70924;SDS011;58577;52.410;13.242;2023-01-05T08:38:30;2.10;;;1.00;;
70924;SDS011;58577;52.410;13.242;2023-01-05T08:41:23;0.80;;;0.80;;
70924;SDS011;58577;52.410;13.242;2023-01-05T08:44:12;2.50;;;0.98;;
70924;SDS011;58577;52.410;13.242;2023-01-05T08:46:58;0.68;;;0.68;;
70924;SDS011;58577;52.410;13.242;2023-01-05T08:49:44;2.53;;;1.15;;
70924;SDS011;58577;52.410;13.242;2023-01-05T08:52:31;1.48;;;1.02;;
70924;SDS011;58577;52.410;13.242;2023-01-05T08:55:17;2.83;;;1.25;;
70924;SDS011;58577;52.410;13.242;2023-01-05T08:58:03;1.10;;;1.10;;
70924;SDS011;58577;52.410;13.242;2023-01-05T09:00:51;1.38;;;1.20;;
70924;SDS011;58577;52.410;13.242;2023-01-05T09:03:38;4.47;;;1.50;;
70924;SDS011;58577;52.410;13.242;2023-01-05T09:06:24;2.42;;;1.00;;
70924;SDS011;58577;52.410;13.242;2023-01-05T09:09:09;2.95;;;1.23;;
70924;SDS011;58577;52.410;13.242;2023-01-05T09:11:55;2.42;;;1.42;;
70924;SDS011;58577;52.410;13.242;2023-01-05T09:14:41;3.70;;;1.40;;
70924;SDS011;58577;52.410;13.242;2023-01-05T09:17:27;3.22;;;1.40;;
70924;SDS011;58577;52.410;13.242;2023-01-05T09:20:13;2.75;;;1.40;;
70924;SDS011;58577;52.410;13.242;2023-01-05T09:22:59;2.55;;;1.10;;
70924;SDS011;58577;52.410;13.242;2023-01-05T09:25:44;1.23;;;1.05;;
70924;SDS011;58577;52.410;13.242;2023-01-05T09:28:30;2.63;;;1.45;;
70924;SDS011;58577;52.410;13.242;2023-01-05T09:31:17;4.90;;;1.38;;
70924;SDS011;58577;52.410;13.242;2023-01-05T09:34:05;3.33;;;1.45;;
70924;SDS011;58577;52.410;13.242;2023-01-05T09:36:51;1.85;;;1.50;;
70924;SDS011;58577;52.410;13.242;2023-01-05T09:39:37;2.17;;;1.33;;
70924;SDS011;58577;52.410;13.242;2023-01-05T09:42:23;1.88;;;1.20;;
70924;SDS011;58577;52.410;13.242;2023-01-05T09:45:16;1.98;;;1.20;;
70924;SDS011;58577;52.410;13.242;2023-01-05T09:48:10;5.15;;;1.60;;
70924;SDS011;58577;52.410;13.242;2023-01-05T09:50:59;4.05;;;1.30;;
70924;SDS011;58577;52.410;13.242;2023-01-05T09:53:45;4.95;;;1.50;;
70924;SDS011;58577;52.410;13.242;2023-01-05T09:56:37;3.58;;;1.60;;
70924;SDS011;58577;52.410;13.242;2023-01-05T09:59:28;4.88;;;1.50;;
70924;SDS011;58577;52.410;13.242;2023-01-05T10:02:28;2.97;;;1.50;;
70924;SDS011;58577;52.410;13.242;2023-01-05T10:05:15;3.80;;;1.85;;
70924;SDS011;58577;52.410;13.242;2023-01-05T10:08:16;1.90;;;1.30;;
70924;SDS011;58577;52.410;13.242;2023-01-05T10:11:13;4.57;;;1.60;;
70924;SDS011;58577;52.410;13.242;2023-01-05T10:17:28;4.93;;;1.45;;
70924;SDS011;58577;52.410;13.242;2023-01-05T10:26:24;2.67;;;1.65;;
70924;SDS011;58577;52.410;13.242;2023-01-05T10:29:16;4.95;;;1.40;;
70924;SDS011;58577;52.410;13.242;2023-01-05T10:47:41;3.65;;;1.50;;
70924;SDS011;58577;52.410;13.242;2023-01-05T10:50:38;8.73;;;1.65;;
70924;SDS011;58577;52.410;13.242;2023-01-05T10:53:26;2.97;;;1.30;;
70924;SDS011;58577;52.410;13.242;2023-01-05T10:56:14;3.30;;;1.25;;
70924;SDS011;58577;52.410;13.242;2023-01-05T10:59:08;2.42;;;1.23;;
70924;SDS011;58577;52.410;13.242;2023-01-05T11:01:55;4.78;;;1.20;;
70924;SDS011;58577;52.410;13.242;2023-01-05T11:04:44;3.63;;;1.20;;
70924;SDS011;58577;52.410;13.242;2023-01-05T11:07:33;6.60;;;1.60;;
70924;SDS011;58577;52.410;13.242;2023-01-05T11:10:33;3.45;;;1.35;;
70924;SDS011;58577;52.410;13.242;2023-01-05T11:19:13;3.47;;;1.52;;
70924;SDS011;58577;52.410;13.242;2023-01-05T11:22:25;4.78;;;2.03;;
70924;SDS011;58577;52.410;13.242;2023-01-05T11:25:29;4.03;;;1.40;;
70924;SDS011;58577;52.410;13.242;2023-01-05T11:28:16;3.65;;;1.20;;
70924;SDS011;58577;52.410;13.242;2023-01-05T11:31:02;4.63;;;1.13;;
70924;SDS011;58577;52.410;13.242;2023-01-05T11:33:56;4.65;;;1.20;;
70924;SDS011;58577;52.410;13.242;2023-01-05T11:36:49;5.18;;;1.77;;
70924;SDS011;58577;52.410;13.242;2023-01-05T11:42:46;3.72;;;1.58;;
70924;SDS011;58577;52.410;13.242;2023-01-05T11:45:44;2.63;;;1.50;;
70924;SDS011;58577;52.410;13.242;2023-01-05T11:48:34;3.45;;;1.17;;
70924;SDS011;58577;52.410;13.242;2023-01-05T11:51:33;5.57;;;1.50;;
70924;SDS011;58577;52.410;13.242;2023-01-05T11:54:39;3.15;;;1.33;;
70924;SDS011;58577;52.410;13.242;2023-01-05T11:57:25;5.78;;;1.60;;
70924;SDS011;58577;52.410;13.242;2023-01-05T12:00:27;5.28;;;2.20;;
70924;SDS011;58577;52.410;13.242;2023-01-05T12:06:27;4.93;;;1.83;;
70924;SDS011;58577;52.410;13.242;2023-01-05T12:09:22;2.25;;;1.73;;
70924;SDS011;58577;52.410;13.242;2023-01-05T12:12:26;4.47;;;1.35;;
70924;SDS011;58577;52.410;13.242;2023-01-05T12:40:30;3.40;;;1.50;;
70924;SDS011;58577;52.410;13.242;2023-01-05T12:43:44;4.50;;;1.35;;
70924;SDS011;58577;52.410;13.242;2023-01-05T12:46:56;7.03;;;1.35;;
70924;SDS011;58577;52.410;13.242;2023-01-05T12:53:09;3.38;;;1.00;;
70924;SDS011;58577;52.410;13.242;2023-01-05T12:56:02;1.27;;;0.98;;
70924;SDS011;58577;52.410;13.242;2023-01-05T13:04:53;6.90;;;1.80;;
70924;SDS011;58577;52.410;13.242;2023-01-05T13:07:46;4.85;;;1.45;;
70924;SDS011;58577;52.410;13.242;2023-01-05T13:14:05;2.78;;;1.30;;
70924;SDS011;58577;52.410;13.242;2023-01-05T13:17:03;3.88;;;1.23;;
70924;SDS011;58577;52.410;13.242;2023-01-05T13:20:30;2.67;;;1.38;;
70924;SDS011;58577;52.410;13.242;2023-01-05T13:23:11;4.15;;;1.60;;
70924;SDS011;58577;52.410;13.242;2023-01-05T13:26:18;3.78;;;1.98;;
70924;SDS011;58577;52.410;13.242;2023-01-05T13:29:10;4.70;;;1.75;;
70924;SDS011;58577;52.410;13.242;2023-01-05T13:53:12;6.47;;;2.05;;
70924;SDS011;58577;52.410;13.242;2023-01-05T13:56:08;10.18;;;2.75;;
70924;SDS011;58577;52.410;13.242;2023-01-05T13:59:05;3.10;;;1.85;;
70924;SDS011;58577;52.410;13.242;2023-01-05T14:01:51;4.55;;;1.40;;
70924;SDS011;58577;52.410;13.242;2023-01-05T14:04:43;5.22;;;1.63;;
70924;SDS011;58577;52.410;13.242;2023-01-05T14:07:30;7.10;;;1.95;;
70924;SDS011;58577;52.410;13.242;2023-01-05T14:10:30;3.95;;;1.52;;
70924;SDS011;58577;52.410;13.242;2023-01-05T14:34:02;4.70;;;1.70;;
70924;SDS011;58577;52.410;13.242;2023-01-05T14:39:41;3.80;;;1.83;;
70924;SDS011;58577;52.410;13.242;2023-01-05T14:42:33;3.05;;;1.67;;
70924;SDS011;58577;52.410;13.242;2023-01-05T14:45:28;6.18;;;1.90;;
70924;SDS011;58577;52.410;13.242;2023-01-05T14:48:25;3.45;;;1.52;;
70924;SDS011;58577;52.410;13.242;2023-01-05T14:51:16;5.88;;;2.08;;
70924;SDS011;58577;52.410;13.242;2023-01-05T14:54:05;6.20;;;1.85;;
70924;SDS011;58577;52.410;13.242;2023-01-05T15:00:55;4.88;;;1.77;;
70924;SDS011;58577;52.410;13.242;2023-01-05T15:03:25;3.50;;;2.10;;
70924;SDS011;58577;52.410;13.242;2023-01-05T15:10:00;5.15;;;1.73;;
70924;SDS011;58577;52.410;13.242;2023-01-05T15:23:32;3.83;;;1.50;;
70924;SDS011;58577;52.410;13.242;2023-01-05T15:27:28;5.35;;;1.65;;
70924;SDS011;58577;52.410;13.242;2023-01-05T15:29:50;4.28;;;1.33;;
70924;SDS011;58577;52.410;13.242;2023-01-05T15:32:47;4.72;;;1.58;;
70924;SDS011;58577;52.410;13.242;2023-01-05T15:35:39;3.92;;;1.45;;
70924;SDS011;58577;52.410;13.242;2023-01-05T15:38:40;7.90;;;1.65;;
70924;SDS011;58577;52.410;13.242;2023-01-05T15:41:29;1.38;;;1.27;;
70924;SDS011;58577;52.410;13.242;2023-01-05T15:44:15;3.35;;;1.52;;
70924;SDS011;58577;52.410;13.242;2023-01-05T15:47:04;6.63;;;1.45;;
70924;SDS011;58577;52.410;13.242;2023-01-05T15:49:54;7.95;;;1.38;;
70924;SDS011;58577;52.410;13.242;2023-01-05T15:52:42;6.20;;;1.70;;
70924;SDS011;58577;52.410;13.242;2023-01-05T15:55:42;2.83;;;1.50;;
70924;SDS011;58577;52.410;13.242;2023-01-05T16:01:15;5.97;;;1.58;;
70924;SDS011;58577;52.410;13.242;2023-01-05T16:04:05;4.78;;;1.30;;
70924;SDS011;58577;52.410;13.242;2023-01-05T16:06:56;2.72;;;1.27;;
70924;SDS011;58577;52.410;13.242;2023-01-05T16:09:45;2.95;;;1.58;;
70924;SDS011;58577;52.410;13.242;2023-01-05T16:12:31;3.65;;;1.90;;
70924;SDS011;58577;52.410;13.242;2023-01-05T16:15:18;8.88;;;1.95;;
70924;SDS011;58577;52.410;13.242;2023-01-05T16:18:07;3.38;;;1.35;;
70924;SDS011;58577;52.410;13.242;2023-01-05T16:21:00;3.78;;;1.77;;
70924;SDS011;58577;52.410;13.242;2023-01-05T16:23:57;2.70;;;1.50;;
70924;SDS011;58577;52.410;13.242;2023-01-05T16:26:50;4.28;;;1.33;;
70924;SDS011;58577;52.410;13.242;2023-01-05T16:35:19;4.57;;;1.83;;
70924;SDS011;58577;52.410;13.242;2023-01-05T16:43:55;3.38;;;1.77;;
70924;SDS011;58577;52.410;13.242;2023-01-05T16:46:43;2.95;;;1.63;;
70924;SDS011;58577;52.410;13.242;2023-01-05T16:52:20;4.57;;;1.70;;
70924;SDS011;58577;52.410;13.242;2023-01-05T16:55:13;2.97;;;1.77;;
70924;SDS011;58577;52.410;13.242;2023-01-05T17:01:21;4.63;;;1.70;;
70924;SDS011;58577;52.410;13.242;2023-01-05T17:04:09;6.55;;;1.67;;
70924;SDS011;58577;52.410;13.242;2023-01-05T17:06:56;8.07;;;2.30;;
70924;SDS011;58577;52.410;13.242;2023-01-05T17:09:43;3.10;;;1.70;;
70924;SDS011;58577;52.410;13.242;2023-01-05T17:12:29;5.65;;;1.88;;
70924;SDS011;58577;52.410;13.242;2023-01-05T17:15:16;5.32;;;2.20;;
70924;SDS011;58577;52.410;13.242;2023-01-05T17:18:13;3.55;;;1.90;;
70924;SDS011;58577;52.410;13.242;2023-01-05T17:21:14;5.00;;;2.10;;
70924;SDS011;58577;52.410;13.242;2023-01-05T17:24:03;5.82;;;1.70;;
70924;SDS011;58577;52.410;13.242;2023-01-05T17:26:49;5.95;;;2.38;;
70924;SDS011;58577;52.410;13.242;2023-01-05T17:29:35;4.60;;;1.98;;
70924;SDS011;58577;52.410;13.242;2023-01-05T17:32:26;8.13;;;2.50;;
70924;SDS011;58577;52.410;13.242;2023-01-05T17:35:18;5.72;;;2.00;;
70924;SDS011;58577;52.410;13.242;2023-01-05T17:38:06;5.60;;;2.20;;
70924;SDS011;58577;52.410;13.242;2023-01-05T17:40:52;9.30;;;2.85;;
70924;SDS011;58577;52.410;13.242;2023-01-05T17:43:41;3.05;;;1.55;;
70924;SDS011;58577;52.410;13.242;2023-01-05T17:46:32;4.30;;;1.97;;
70924;SDS011;58577;52.410;13.242;2023-01-05T17:49:21;6.70;;;2.40;;
70924;SDS011;58577;52.410;13.242;2023-01-05T17:52:07;9.32;;;2.03;;
70924;SDS011;58577;52.410;13.242;2023-01-05T17:54:56;5.82;;;2.30;;
70924;SDS011;58577;52.410;13.242;2023-01-05T17:57:47;7.00;;;2.33;;
70924;SDS011;58577;52.410;13.242;2023-01-05T18:00:36;4.78;;;2.38;;
70924;SDS011;58577;52.410;13.242;2023-01-05T18:03:32;5.60;;;2.00;;
70924;SDS011;58577;52.410;13.242;2023-01-05T18:06:27;6.70;;;2.28;;
70924;SDS011;58577;52.410;13.242;2023-01-05T18:09:16;6.57;;;2.15;;
70924;SDS011;58577;52.410;13.242;2023-01-05T18:12:02;9.05;;;2.60;;
70924;SDS011;58577;52.410;13.242;2023-01-05T18:14:51;5.85;;;2.40;;
70924;SDS011;58577;52.410;13.242;2023-01-05T18:17:38;6.05;;;2.15;;
70924;SDS011;58577;52.410;13.242;2023-01-05T18:20:24;7.18;;;3.30;;
70924;SDS011;58577;52.410;13.242;2023-01-05T18:23:14;5.65;;;2.72;;
70924;SDS011;58577;52.410;13.242;2023-01-05T18:26:02;6.43;;;2.40;;
70924;SDS011;58577;52.410;13.242;2023-01-05T18:28:52;6.82;;;2.17;;
70924;SDS011;58577;52.410;13.242;2023-01-05T18:31:44;8.95;;;2.50;;
70924;SDS011;58577;52.410;13.242;2023-01-05T18:34:31;4.28;;;2.10;;
70924;SDS011;58577;52.410;13.242;2023-01-05T18:37:20;5.67;;;2.00;;
70924;SDS011;58577;52.410;13.242;2023-01-05T18:40:06;6.32;;;2.42;;
70924;SDS011;58577;52.410;13.242;2023-01-05T18:42:53;8.23;;;2.83;;
70924;SDS011;58577;52.410;13.242;2023-01-05T18:45:52;7.30;;;2.80;;
70924;SDS011;58577;52.410;13.242;2023-01-05T18:48:38;6.07;;;2.33;;
70924;SDS011;58577;52.410;13.242;2023-01-05T18:51:24;5.35;;;2.40;;
70924;SDS011;58577;52.410;13.242;2023-01-05T18:54:10;3.47;;;2.00;;
70924;SDS011;58577;52.410;13.242;2023-01-05T18:57:05;5.18;;;1.92;;
70924;SDS011;58577;52.410;13.242;2023-01-05T18:59:53;4.85;;;2.33;;
70924;SDS011;58577;52.410;13.242;2023-01-05T19:02:42;4.75;;;2.42;;
70924;SDS011;58577;52.410;13.242;2023-01-05T19:05:28;8.55;;;3.42;;
70924;SDS011;58577;52.410;13.242;2023-01-05T19:08:14;9.55;;;2.65;;
70924;SDS011;58577;52.410;13.242;2023-01-05T19:11:08;4.55;;;2.00;;
70924;SDS011;58577;52.410;13.242;2023-01-05T19:14:15;3.70;;;2.17;;
70924;SDS011;58577;52.410;13.242;2023-01-05T19:17:07;3.73;;;2.30;;
70924;SDS011;58577;52.410;13.242;2023-01-05T19:19:53;7.45;;;2.75;;
70924;SDS011;58577;52.410;13.242;2023-01-05T19:22:44;7.85;;;2.63;;
70924;SDS011;58577;52.410;13.242;2023-01-05T19:25:39;5.18;;;2.63;;
70924;SDS011;58577;52.410;13.242;2023-01-05T19:28:26;8.25;;;2.67;;
70924;SDS011;58577;52.410;13.242;2023-01-05T19:31:14;5.20;;;2.60;;
70924;SDS011;58577;52.410;13.242;2023-01-05T19:34:09;4.10;;;2.63;;
70924;SDS011;58577;52.410;13.242;2023-01-05T19:37:00;5.03;;;2.58;;
70924;SDS011;58577;52.410;13.242;2023-01-05T19:39:52;9.73;;;2.20;;
70924;SDS011;58577;52.410;13.242;2023-01-05T19:42:41;3.25;;;1.98;;
70924;SDS011;58577;52.410;13.242;2023-01-05T19:45:29;5.53;;;2.40;;
70924;SDS011;58577;52.410;13.242;2023-01-05T19:48:23;7.68;;;2.90;;
70924;SDS011;58577;52.410;13.242;2023-01-05T19:51:20;4.78;;;2.55;;
70924;SDS011;58577;52.410;13.242;2023-01-05T19:54:12;7.57;;;2.95;;
70924;SDS011;58577;52.410;13.242;2023-01-05T19:57:02;8.88;;;2.90;;
70924;SDS011;58577;52.410;13.242;2023-01-05T19:59:51;8.02;;;3.55;;
70924;SDS011;58577;52.410;13.242;2023-01-05T20:02:37;6.80;;;3.13;;